createdAt,value
2023-02-14T00:04:20.342Z,57.53
2023-02-14T00:09:22.101Z,71.38
2023-02-14T00:14:42.479Z,78.75
2023-02-14T00:19:44.220Z,60.88
2023-02-14T00:24:45.994Z,64.90
2023-02-14T00:29:47.727Z,72.80
2023-02-14T00:34:49.376Z,66.65
2023-02-14T00:39:51.121Z,78.57
2023-02-14T00:44:52.771Z,67.55
2023-02-14T00:49:55.337Z,82.82
2023-02-14T00:54:57.232Z,70.23
2023-02-14T00:59:59.444Z,78.40
2023-02-14T01:05:01.912Z,68.65
2023-02-14T01:10:04.146Z,90.80
2023-02-14T01:15:06.166Z,91.33
2023-02-14T01:20:08.703Z,72.07
2023-02-14T01:25:10.345Z,78.50
2023-02-14T01:30:12.853Z,83.07
2023-02-14T01:35:15.778Z,70.07
2023-02-14T01:40:17.490Z,87.50
2023-02-14T01:45:23.022Z,95.43
2023-02-14T01:50:34.199Z,74.13
2023-02-14T01:55:42.228Z,65.60
2023-02-14T02:00:59.711Z,75.65
2023-02-14T02:06:26.178Z,57.63
2023-02-14T02:11:28.057Z,73.18
2023-02-14T02:16:47.258Z,69.23
2023-02-14T02:22:05.796Z,56.20
2023-02-14T02:27:39.068Z,58.88
2023-02-14T02:33:21.492Z,73.00
2023-02-14T02:38:36.252Z,70.40
2023-02-14T02:43:46.923Z,49.40
2023-02-14T02:48:59.684Z,64.63
2023-02-14T02:54:13.284Z,58.97
2023-02-14T02:59:27.637Z,52.13
2023-02-14T03:04:53.007Z,55.63
2023-02-14T03:09:57.928Z,57.10
2023-02-14T03:15:10.964Z,64.68
2023-02-14T03:26:06.441Z,54.88
2023-02-14T03:31:11.212Z,55.85
2023-02-14T03:36:21.725Z,61.38
2023-02-14T03:41:29.003Z,49.20
2023-02-14T03:46:49.960Z,63.10
2023-02-14T03:51:55.023Z,65.97
2023-02-14T03:57:04.467Z,85.97
2023-02-14T04:02:16.872Z,55.85
2023-02-14T04:07:21.697Z,56.33
2023-02-14T04:12:36.755Z,60.03
2023-02-14T04:17:58.691Z,59.60
2023-02-14T04:23:02.367Z,61.28
2023-02-14T04:28:05.173Z,151.40
2023-02-14T04:33:08.205Z,73.97
2023-02-14T04:38:09.895Z,68.55
2023-02-14T04:43:11.836Z,64.90
2023-02-14T04:48:13.490Z,53.72
2023-02-14T04:53:15.150Z,69.72
2023-02-14T04:58:17.451Z,52.58
2023-02-14T05:03:19.130Z,70.25
2023-02-14T05:08:20.843Z,42.83
2023-02-14T05:13:22.950Z,77.85
2023-02-14T05:18:25.809Z,50.40
2023-02-14T05:23:27.571Z,85.90
2023-02-14T05:28:30.111Z,48.25
2023-02-14T05:33:31.823Z,46.97
2023-02-14T05:38:34.821Z,52.20
2023-02-14T05:43:37.233Z,54.90
2023-02-14T05:48:39.242Z,54.43
2023-02-14T05:53:40.948Z,51.78
2023-02-14T05:58:43.504Z,51.93
2023-02-14T06:03:45.159Z,56.55
2023-02-14T06:08:46.817Z,47.78
2023-02-14T06:13:48.508Z,49.72
2023-02-14T06:18:50.122Z,77.45
2023-02-14T06:23:51.902Z,54.83
2023-02-14T06:28:55.548Z,74.07
2023-02-14T06:33:57.213Z,56.67
2023-02-14T06:38:58.965Z,72.87
2023-02-14T06:44:00.949Z,56.50
2023-02-14T06:49:02.604Z,60.17
2023-02-14T06:54:04.325Z,61.83
2023-02-14T06:59:06.368Z,64.23
2023-02-14T07:04:08.369Z,64.22
2023-02-14T07:09:10.042Z,55.92
2023-02-14T07:14:12.043Z,58.90
2023-02-14T07:19:13.814Z,90.15
2023-02-14T07:24:15.560Z,69.30
2023-02-14T07:29:17.272Z,63.77
2023-02-14T07:34:18.952Z,69.33
2023-02-14T07:39:20.652Z,77.47
2023-02-14T07:44:22.432Z,70.27
2023-02-14T07:49:24.144Z,106.07
2023-02-14T07:54:25.941Z,53.80
2023-02-14T07:59:28.129Z,54.90
2023-02-14T08:04:31.731Z,51.78
2023-02-14T08:09:34.572Z,64.28
2023-02-14T08:14:36.767Z,60.27
2023-02-14T08:19:38.846Z,69.40
2023-02-14T08:24:40.590Z,55.08
2023-02-14T08:30:00.786Z,59.65
2023-02-14T08:35:02.338Z,63.28
2023-02-14T08:40:03.982Z,51.72
2023-02-14T08:45:05.943Z,67.27
2023-02-14T08:50:12.543Z,48.37
2023-02-14T08:55:14.460Z,51.20
2023-02-14T09:00:16.737Z,50.63
2023-02-14T09:05:19.566Z,71.38
2023-02-14T09:10:21.915Z,46.60
2023-02-14T09:15:23.731Z,47.75
2023-02-14T09:20:26.086Z,40.20
2023-02-14T09:25:28.154Z,40.47
2023-02-14T09:30:30.235Z,41.30
2023-02-14T09:35:51.313Z,39.17
2023-02-14T09:40:53.056Z,34.92
2023-02-14T09:45:56.785Z,40.10
2023-02-14T09:51:03.552Z,26.65
2023-02-14T09:56:42.682Z,25.08
2023-02-14T10:01:59.989Z,24.15
2023-02-14T10:07:16.865Z,24.35
2023-02-14T10:12:34.052Z,22.00
2023-02-14T10:17:47.049Z,23.27
2023-02-14T10:22:57.740Z,23.20
2023-02-14T10:28:01.966Z,22.40
2023-02-14T10:33:13.565Z,24.13
2023-02-14T10:38:28.126Z,21.58
2023-02-14T10:44:17.487Z,24.45
2023-02-14T10:49:36.188Z,27.38
2023-02-14T10:54:41.537Z,26.15
2023-02-14T10:59:52.600Z,25.00
2023-02-14T11:04:54.975Z,26.52
2023-02-14T11:09:57.870Z,24.95
2023-02-14T11:15:14.874Z,26.33
2023-02-14T11:20:19.984Z,29.15
2023-02-14T11:25:25.523Z,34.50
2023-02-14T11:30:39.905Z,28.90
2023-02-14T11:35:49.543Z,50.35
2023-02-14T11:40:56.376Z,36.53
2023-02-14T11:46:28.131Z,34.15
2023-02-14T11:51:42.851Z,31.95
2023-02-14T11:56:57.822Z,31.42
2023-02-14T12:02:52.991Z,34.58
2023-02-14T12:07:58.645Z,31.95
2023-02-14T12:13:20.604Z,35.28
2023-02-14T12:18:28.615Z,35.45
2023-02-14T12:23:40.265Z,32.65
2023-02-14T12:28:49.929Z,32.03
2023-02-14T12:33:52.092Z,32.42
2023-02-14T12:39:05.123Z,29.47
2023-02-14T12:44:25.935Z,33.85
2023-02-14T12:49:53.116Z,33.70
2023-02-14T12:55:18.773Z,31.25
2023-02-14T13:00:51.078Z,31.55
2023-02-14T13:06:20.748Z,30.80
2023-02-14T13:11:36.920Z,30.75
2023-02-14T13:16:45.044Z,29.40
2023-02-14T13:21:48.939Z,30.92
2023-02-14T13:27:00.305Z,28.67
2023-02-14T13:32:03.055Z,31.95
2023-02-14T13:37:10.468Z,32.97
2023-02-14T13:42:13.138Z,33.65
2023-02-14T13:47:20.890Z,36.15
2023-02-14T13:52:48.735Z,38.60
2023-02-14T13:58:03.248Z,37.72
2023-02-14T14:03:06.735Z,34.15
2023-02-14T14:08:20.787Z,39.22
2023-02-14T14:13:40.942Z,37.42
2023-02-14T14:18:43.563Z,38.47
2023-02-14T14:23:45.572Z,38.13
2023-02-14T14:28:47.407Z,40.33
2023-02-14T14:33:58.859Z,37.00
2023-02-14T14:39:04.157Z,42.05
2023-02-14T14:44:06.846Z,37.33
2023-02-14T14:49:11.387Z,34.20
2023-02-14T14:54:17.683Z,33.60
2023-02-14T14:59:28.805Z,34.97
2023-02-14T15:04:33.211Z,34.88
2023-02-14T15:09:35.092Z,35.92
2023-02-14T15:14:41.367Z,35.20
2023-02-14T15:19:46.023Z,40.10
2023-02-14T15:24:49.189Z,35.80
2023-02-14T15:29:57.288Z,44.58
2023-02-14T15:35:02.281Z,38.53
2023-02-14T15:40:08.751Z,39.92
2023-02-14T15:45:26.486Z,36.35
2023-02-14T15:50:31.887Z,38.00
2023-02-14T15:55:35.626Z,33.45
2023-02-14T16:00:37.659Z,35.95
2023-02-14T16:05:49.102Z,37.93
2023-02-14T16:11:14.556Z,41.50
2023-02-14T16:16:17.054Z,38.92
2023-02-14T16:21:20.306Z,36.92
2023-02-14T16:26:21.914Z,41.17
2023-02-14T16:31:25.253Z,34.90
2023-02-14T16:36:30.264Z,39.80
2023-02-14T16:41:34.133Z,39.67
2023-02-14T16:46:36.132Z,28.58
2023-02-14T16:51:42.584Z,38.33
2023-02-14T16:56:48.503Z,44.05
2023-02-14T17:01:50.412Z,44.45
2023-02-14T17:06:54.804Z,38.77
2023-02-14T17:12:01.701Z,43.78
2023-02-14T17:17:03.441Z,44.15
2023-02-14T17:22:05.372Z,39.20
2023-02-14T17:27:08.465Z,43.43
2023-02-14T17:32:13.858Z,48.80
2023-02-14T17:37:15.698Z,49.00
2023-02-14T17:42:17.662Z,58.53
2023-02-14T17:47:19.759Z,51.33
2023-02-14T17:52:22.122Z,57.35
2023-02-14T17:57:23.938Z,61.25
2023-02-14T18:02:25.656Z,56.20
2023-02-14T18:07:27.385Z,57.75
2023-02-14T18:12:29.101Z,57.70
2023-02-14T18:17:30.767Z,58.22
2023-02-14T18:22:32.439Z,52.22
2023-02-14T18:27:34.276Z,56.88
2023-02-14T18:32:35.933Z,51.67
2023-02-14T18:37:37.720Z,57.85
2023-02-14T18:42:39.407Z,56.77
2023-02-14T18:47:41.053Z,55.28
2023-02-14T18:52:42.736Z,72.20
2023-02-14T18:57:44.744Z,74.43
2023-02-14T19:02:47.220Z,70.20
2023-02-14T19:07:54.212Z,74.20
2023-02-14T19:12:55.961Z,88.03
2023-02-14T19:17:57.725Z,101.17
2023-02-14T19:22:59.458Z,64.53
2023-02-14T19:28:01.207Z,78.20
2023-02-14T19:33:03.287Z,58.87
2023-02-14T19:38:04.994Z,59.72
2023-02-14T19:43:06.636Z,76.78
2023-02-14T19:48:09.641Z,72.00
2023-02-14T19:53:11.423Z,58.47
2023-02-14T19:58:13.129Z,36.85
2023-02-14T20:03:14.803Z,63.70
2023-02-14T20:08:17.844Z,54.63
2023-02-14T20:13:19.549Z,70.93
2023-02-14T20:18:21.228Z,53.60
2023-02-14T20:23:22.862Z,59.10
2023-02-14T20:28:24.681Z,58.45
2023-02-14T20:33:26.387Z,61.27
2023-02-14T20:38:28.297Z,52.73
2023-02-14T20:43:30.211Z,55.30
2023-02-14T20:48:33.339Z,45.73
2023-02-14T20:53:35.072Z,47.95
2023-02-14T20:58:38.430Z,47.50
2023-02-14T21:03:41.892Z,42.80
2023-02-14T21:08:44.840Z,47.15
2023-02-14T21:13:46.911Z,49.92
2023-02-14T21:18:55.095Z,40.08
2023-02-14T21:23:56.777Z,41.83
2023-02-14T21:28:58.828Z,40.03
2023-02-14T21:34:01.836Z,46.43
2023-02-14T21:39:04.881Z,42.47
2023-02-14T21:44:06.933Z,41.35
2023-02-14T21:49:27.418Z,46.78
2023-02-14T21:54:29.214Z,60.40
2023-02-14T21:59:30.912Z,48.63
2023-02-14T22:04:33.055Z,50.17
2023-02-14T22:09:34.753Z,59.63
2023-02-14T22:14:36.773Z,59.23
2023-02-14T22:19:38.573Z,93.20
2023-02-14T22:24:40.273Z,68.97
2023-02-14T22:29:42.460Z,64.57
2023-02-14T22:34:44.327Z,75.72
2023-02-14T22:39:46.241Z,99.80
2023-02-14T22:44:47.971Z,132.80
2023-02-14T22:49:50.102Z,68.43
2023-02-14T22:54:53.660Z,67.77
2023-02-14T22:59:55.307Z,67.38
2023-02-14T23:04:57.307Z,55.70
2023-02-14T23:09:59.023Z,50.03
2023-02-14T23:15:19.374Z,60.10
2023-02-14T23:20:39.741Z,152.93
2023-02-14T23:25:43.400Z,178.73
2023-02-14T23:30:45.040Z,171.45
2023-02-14T23:35:46.690Z,55.83
2023-02-14T23:41:07.127Z,144.33
2023-02-14T23:46:08.815Z,119.68
2023-02-14T23:51:10.567Z,104.57
2023-02-14T23:56:12.268Z,86.07
